aviador You're here:

CYQB Decoded Metar

QUEBEC in QC, CANADA
Report Time2017-12-18 08:00:00
UTC Time2017-12-18 09:06:11
Flight Rules vfr VFR
Wind270° at 06 kt
W.Decomp.*RWY 30: 5.8 kt HW 1.3 kt LCW
RWY 24: 4.1 kt HW 4.4 kt RCW
W.Rank270° ranks 8
Current wind is below 270° avg. (9.2)
Visibility9999 m
Phenomena:N/A
Clouds:Few 012 Hf
Few 085 Hf
Overcast 130 Hf
Expected CloudBase > 1,600 ft AGL from Temp-Dew spread
Ceiling13,000 ft
Temp-18°C (ISA -33)
Dew Point-22°C (71% RH)
AAT-23.8°C
QNH1023 hPa
Density Alt-4,236 ft
Elevation240 ft
Report Wrong Elevation
Raw Report
CYQB 180800Z 27006KT 15SM FEW012 FEW085 OVC130 M18/M22 A3022 RMK
SC1AC1AC7 SC TR SLP242=

Extra information for CYQB:More info

Metar Taf Metar & Taf Last 4 Metars F.Rules Stats Wind Profile Meteogram Temp Stats Airport Information Weather charts Add Link Nearby VenuesMetar ALERT Operation Metar Decoded Social comments

navcanada